Kakariki — ZMKA — position and weather

sailwx.info

Track history (hours):
 
Tides and Currents Weather Stations Pressure Air Temp Water Temp Dewpoint Dewpoint Depression Visibility Wind Speed Wind Dir Waves Ship Positions

Kakariki

Last reported at 2017-Feb-22 12:00 UTC. Time now 2017-Feb-23 00:21 UTC.
Position S 36°48' E 176°36'.

Length 183 m; beam 32 m; draft 11 m.

Type: Ship (hazmat cat A). MMSI: 512000050.

Wind from 100 at 3 knots

Barometer 1017.8 mb
Air temperature 20.2 ° C
Visibility: greater than 10.8 NM
Dewpoint 16.2 ° C

Date/timePositionNaut miles runAvg speedWind from/ knotsBaromVisibWave heightAir tempDewpointWater temp
2017-Feb-22 12:00S 36°48' E 176°36'6210.4 100 / 31017.810.8 20.216.2
2017-Feb-22 06:04S 36°23' E 175°26'611.4
2017-Feb-22 05:33S 36°21' E 175°19'1211.8
2017-Feb-22 04:33S 36°18' E 175°05'1511.8
2017-Feb-22 03:17S 36°09' E 174°50'7 0.2
2017-Feb-20 20:03S 36°13' E 174°56'612.8
2017-Feb-20 19:33S 36°17' E 175°03'1312.9
2017-Feb-20 18:33S 36°21' E 175°18'2712.5
2017-Feb-20 16:23S 36°30' E 175°50'6610.7
2017-Feb-20 10:15S 37°33' E 176°11'6 8.1
2017-Feb-20 09:33S 37°38' E 176°10'1 0.0
2017-Feb-19 00:34S 37°40' E 176°11'7 6.9
2017-Feb-18 23:33S 37°33' E 176°13'68 9.7
2017-Feb-18 16:32S 36°29' E 175°46'2512.5
2017-Feb-18 14:31S 36°21' E 175°17'1212.1
2017-Feb-18 13:33S 36°18' E 175°03'1312.3
2017-Feb-18 12:28S 36°09' E 174°50'109 2.2
2017-Feb-16 12:00S 36°00' E 172°36'7913.1 190 / 181012.5 2.2 18.018.0
2017-Feb-16 06:00S 37°18' E 172°48'7212.0 170 / 221012.4 1.1 16.516.5
2017-Feb-16 00:00S 38°30' E 172°54'   1015.610.8 18.014.6
Track history (hours):
 
Tides and Currents Weather Stations Pressure Air Temp Water Temp Dewpoint Dewpoint Depression Visibility Wind Speed Wind Dir Waves Ship Positions

Kakariki

Last reported at 2017-Feb-22 12:00 UTC. Time now 2017-Feb-23 00:21 UTC.
Position S 36°48' E 176°36'.

Length 183 m; beam 32 m; draft 11 m.

Type: Ship (hazmat cat A). MMSI: 512000050.

Wind from 100 at 3 knots

Barometer 1017.8 mb
Air temperature 20.2 ° C
Visibility: greater than 10.8 NM
Dewpoint 16.2 ° C

Date/timePositionNaut miles runAvg speedWind from/ knotsBaromVisibWave heightAir tempDewpointWater temp
2017-Feb-22 12:00S 36°48' E 176°36'6210.4 100 / 31017.810.8 20.216.2
2017-Feb-22 06:04S 36°23' E 175°26'611.4
2017-Feb-22 05:33S 36°21' E 175°19'1211.8
2017-Feb-22 04:33S 36°18' E 175°05'1511.8
2017-Feb-22 03:17S 36°09' E 174°50'7 0.2
2017-Feb-20 20:03S 36°13' E 174°56'612.8
2017-Feb-20 19:33S 36°17' E 175°03'1312.9
2017-Feb-20 18:33S 36°21' E 175°18'2712.5
2017-Feb-20 16:23S 36°30' E 175°50'6610.7
2017-Feb-20 10:15S 37°33' E 176°11'6 8.1
2017-Feb-20 09:33S 37°38' E 176°10'1 0.0
2017-Feb-19 00:34S 37°40' E 176°11'7 6.9
2017-Feb-18 23:33S 37°33' E 176°13'68 9.7
2017-Feb-18 16:32S 36°29' E 175°46'2512.5
2017-Feb-18 14:31S 36°21' E 175°17'1212.1
2017-Feb-18 13:33S 36°18' E 175°03'1312.3
2017-Feb-18 12:28S 36°09' E 174°50'109 2.2
2017-Feb-16 12:00S 36°00' E 172°36'7913.1 190 / 181012.5 2.2 18.018.0
2017-Feb-16 06:00S 37°18' E 172°48'7212.0 170 / 221012.4 1.1 16.516.5
2017-Feb-16 00:00S 38°30' E 172°54'   1015.610.8 18.014.6

Dump ship's entire track history